This is the latest recevied weather packets stored in our database for station/object DJ2RF. If no packets are shown the sender has not sent any weather packets the latest 10 day(s).
| Time | Temp. | Humidity | Pressure | Rain* | Wind** | Luminosity | Snow |
|---|---|---|---|---|---|---|---|
| 1778128902 | 9.44° C | 84% | 1013 hPa | 0 mm | - | - | - |
| 1778128306 | 8.89° C | 85% | 1012.9 hPa | 0 mm | - | - | - |
| 1778127822 | 8.33° C | 86% | 1012.8 hPa | 0 mm | - | - | - |
| 1778127261 | 8.33° C | 86% | 1012.7 hPa | 0 mm | - | - | - |
| 1778126682 | 8.33° C | 86% | 1012.7 hPa | 0 mm | - | - | - |
| 1778126120 | 8.33° C | 86% | 1012.7 hPa | 0 mm | - | - | - |
| 1778125547 | 8.33° C | 86% | 1012.8 hPa | 0 mm | - | - | - |
| 1778125061 | 7.78° C | 86% | 1012.6 hPa | 0 mm | - | - | - |
| 1778124562 | 7.78° C | 86% | 1012.6 hPa | 0 mm | - | - | - |
| 1778124045 | 7.78° C | 87% | 1012.6 hPa | 0 mm | - | - | - |
| 1778123477 | 7.78° C | 87% | 1012.4 hPa | 0 mm | - | - | - |
| 1778122985 | 7.78° C | 86% | 1012.4 hPa | 0 mm | - | - | - |
| 1778122496 | 7.78° C | 86% | 1012.5 hPa | 0 mm | - | - | - |
| 1778122002 | 7.78° C | 86% | 1012.5 hPa | 0 mm | - | - | - |
| 1778121456 | 8.33° C | 86% | 1012.6 hPa | 0 mm | - | - | - |
| 1778120894 | 8.33° C | 86% | 1012.5 hPa | 0 mm | - | - | - |
| 1778120330 | 8.33° C | 86% | 1012.5 hPa | 0 mm | - | - | - |
| 1778119739 | 8.33° C | 86% | 1012.4 hPa | 0 mm | - | - | - |
| 1778119224 | 8.33° C | 86% | 1012.4 hPa | 0 mm | - | - | - |
| 1778118695 | 8.33° C | 86% | 1012.2 hPa | 0 mm | - | - | - |
| 1778118201 | 8.89° C | 86% | 1012.3 hPa | 0 mm | - | - | - |
| 1778117716 | 8.89° C | 86% | 1012.3 hPa | 0 mm | - | - | - |
| 1778117154 | 8.89° C | 86% | 1012.2 hPa | 0 mm | - | - | - |
| 1778116570 | 8.89° C | 86% | 1012.2 hPa | 0 mm | - | - | - |
| 1778116085 | 8.89° C | 86% | 1012 hPa | 0 mm | - | - | - |
* Rain latest hour (hover to see other rain measurements)
** Current wind speed in m/s (hover to see current wind gust speed)